Terminal Aerodrome Forecast
Issued by NWS

Home | Current Version | Previous Version | Graphics & Text | Print | Product List | Glossary On
Versions: 1 2 3 4 5 6 7 8 9 10 11 12 13
764
FTUS43 KMPX 251137
TAFRWF
TAF
KRWF 251137Z 2512/2612 12005KT P6SM SCT250
     FM251400 16014G22KT P6SM SCT100
     FM260000 18007KT P6SM BKN060=

USA.gov is the U.S. government's official web portal to all federal, state and local government web resources and services.